Randolph, Wisconsin
Current Conditions -  °F | °C
As of 10:55 AM on Friday 28 Nov 2014 (Local Time) from KUNU Reporting Station
Overcast Overcast  
Wind Chill:   Ceiling: 7000
Heat Index: 19°   Visibility: 10mi
Dew Point: 13°   Wind: 13mph
Humidity: 76%   Direction: 130°SE
Pressure: 30.1"   Gusts: NA
Location:  43.54°N, 89°W
Report Text: KUNU 281655Z AUTO 13011KT 10SM OVC070 M07/M10 A3010 RMK AO2 T10701105
Loading
Personal Weather Stations






























Interactive Weather Map New forecast layout! Learn more

10-Day Weather Forecast

Advertisements
Track Severe Weather on mobile